createdAt,value
2023-05-22T00:00:56.148Z,15.20
2023-05-22T00:01:57.772Z,13.20
2023-05-22T00:02:59.740Z,14.57
2023-05-22T00:04:02.833Z,12.77
2023-05-22T00:05:05.451Z,13.53
2023-05-22T00:06:10.135Z,13.57
2023-05-22T00:07:11.734Z,12.13
2023-05-22T00:08:13.278Z,14.63
2023-05-22T00:09:15.210Z,13.03
2023-05-22T00:10:16.837Z,13.20
2023-05-22T00:11:18.502Z,13.43
2023-05-22T00:12:20.037Z,14.63
2023-05-22T00:13:21.672Z,12.50
2023-05-22T00:14:23.321Z,24.20
2023-05-22T00:15:24.975Z,13.40
2023-05-22T00:16:26.476Z,13.90
2023-05-22T00:17:30.883Z,12.30
2023-05-22T00:18:32.503Z,15.70
2023-05-22T00:19:35.192Z,14.33
2023-05-22T00:20:41.144Z,13.10
2023-05-22T00:21:43.336Z,15.63
2023-05-22T00:22:45.082Z,12.40
2023-05-22T00:23:46.633Z,16.83
2023-05-22T00:24:48.221Z,13.17
2023-05-22T00:25:50.803Z,14.07
2023-05-22T00:26:52.296Z,15.60
2023-05-22T00:27:54.053Z,13.00
2023-05-22T00:28:55.810Z,14.43
2023-05-22T00:29:58.168Z,14.87
2023-05-22T00:30:59.831Z,13.80
2023-05-22T00:32:01.385Z,17.10
2023-05-22T00:33:03.776Z,15.70
2023-05-22T00:34:05.440Z,13.63
2023-05-22T00:35:07.405Z,16.73
2023-05-22T00:36:09.106Z,14.23
2023-05-22T00:37:10.882Z,13.37
2023-05-22T00:38:27.444Z,13.83
2023-05-22T00:39:29.021Z,13.83
2023-05-22T00:40:30.637Z,19.20
2023-05-22T00:41:36.025Z,13.43
2023-05-22T00:42:37.765Z,13.50
2023-05-22T00:43:39.709Z,20.77
2023-05-22T00:44:41.990Z,13.10
2023-05-22T00:45:43.707Z,18.70
2023-05-22T00:46:45.563Z,12.67
2023-05-22T00:47:47.377Z,13.17
2023-05-22T00:48:49.302Z,14.60
2023-05-22T00:49:51.046Z,14.93
2023-05-22T00:50:53.936Z,13.80
2023-05-22T00:51:55.526Z,14.10
2023-05-22T00:52:57.070Z,13.47
2023-05-22T00:53:58.881Z,12.63
2023-05-22T00:55:00.795Z,13.87
2023-05-22T00:56:03.658Z,12.93
2023-05-22T00:57:05.546Z,12.70
2023-05-22T00:58:08.285Z,13.27
2023-05-22T00:59:10.340Z,12.43
2023-05-22T01:00:13.620Z,13.53
2023-05-22T01:01:15.563Z,13.97
2023-05-22T01:02:17.214Z,14.13
2023-05-22T01:03:19.691Z,16.57
2023-05-22T01:04:21.410Z,16.73
2023-05-22T01:05:22.968Z,17.73
2023-05-22T01:06:24.515Z,18.60
2023-05-22T01:07:26.115Z,14.97
2023-05-22T01:08:27.806Z,16.97
2023-05-22T01:09:29.932Z,13.40
2023-05-22T01:10:31.943Z,14.97
2023-05-22T01:11:46.002Z,14.40
2023-05-22T01:12:47.612Z,14.33
2023-05-22T01:14:00.438Z,14.57
2023-05-22T01:15:05.217Z,16.53
2023-05-22T01:16:13.191Z,14.40
2023-05-22T01:17:22.554Z,13.13
2023-05-22T01:18:29.546Z,19.67
2023-05-22T01:19:50.601Z,13.27
2023-05-22T01:21:14.502Z,14.77
2023-05-22T01:22:40.858Z,14.23
2023-05-22T01:23:42.372Z,13.10
2023-05-22T01:24:51.948Z,13.20
2023-05-22T01:26:08.873Z,15.40
2023-05-22T01:27:28.569Z,13.30
2023-05-22T01:28:51.121Z,14.77
2023-05-22T01:29:52.616Z,20.27
2023-05-22T01:31:09.190Z,13.57
2023-05-22T01:32:13.107Z,16.93
2023-05-22T01:33:16.162Z,13.77
2023-05-22T01:34:18.784Z,16.73
2023-05-22T01:35:20.968Z,14.53
2023-05-22T01:36:24.033Z,14.13
2023-05-22T01:37:26.204Z,17.20
2023-05-22T01:38:28.368Z,15.37
2023-05-22T01:39:30.700Z,14.70
2023-05-22T01:40:32.551Z,14.53
2023-05-22T01:41:34.261Z,14.80
2023-05-22T01:42:36.025Z,15.17
2023-05-22T01:43:38.006Z,15.23
2023-05-22T01:44:40.867Z,14.60
2023-05-22T01:45:42.441Z,20.13
2023-05-22T01:46:44.184Z,16.40
2023-05-22T01:47:45.744Z,16.20
2023-05-22T01:48:47.295Z,15.17
2023-05-22T01:49:48.967Z,14.93
2023-05-22T01:50:51.965Z,14.40
2023-05-22T01:52:06.023Z,15.27
2023-05-22T01:53:15.314Z,20.23
2023-05-22T01:54:24.151Z,14.90
2023-05-22T01:55:45.301Z,14.07
2023-05-22T01:56:48.946Z,14.87
2023-05-22T01:58:03.056Z,13.40
2023-05-22T01:59:10.553Z,13.97
2023-05-22T02:00:16.075Z,15.70
2023-05-22T02:01:19.064Z,15.13
2023-05-22T02:02:21.362Z,18.87
2023-05-22T02:03:26.978Z,14.20
2023-05-22T02:04:30.581Z,20.70
2023-05-22T02:05:35.880Z,14.17
2023-05-22T02:06:38.156Z,14.33
2023-05-22T02:07:41.973Z,14.50
2023-05-22T02:08:44.106Z,15.50
2023-05-22T02:09:46.294Z,14.30
2023-05-22T02:10:49.584Z,15.17
2023-05-22T02:11:51.465Z,14.80
2023-05-22T02:12:53.538Z,17.23
2023-05-22T02:13:55.798Z,16.23
2023-05-22T02:14:57.532Z,15.27
2023-05-22T02:15:59.482Z,15.50
2023-05-22T02:17:02.234Z,15.07
2023-05-22T02:18:04.076Z,18.10
2023-05-22T02:19:08.754Z,14.40
2023-05-22T02:20:15.150Z,15.13
2023-05-22T02:21:16.794Z,14.93
2023-05-22T02:22:18.404Z,14.50
2023-05-22T02:23:20.043Z,13.97
2023-05-22T02:24:23.630Z,15.07
2023-05-22T02:25:25.312Z,14.30
2023-05-22T02:26:26.788Z,16.40
2023-05-22T02:27:28.323Z,13.53
2023-05-22T02:28:29.873Z,16.53
2023-05-22T02:29:31.837Z,17.80
2023-05-22T02:30:33.444Z,16.40
2023-05-22T02:31:35.505Z,13.80
2023-05-22T02:32:37.486Z,14.80
2023-05-22T02:33:39.068Z,18.67
2023-05-22T02:34:40.684Z,16.43
2023-05-22T02:35:42.441Z,15.80
2023-05-22T02:36:43.982Z,15.60
2023-05-22T02:37:45.717Z,19.83
2023-05-22T02:38:47.383Z,15.40
2023-05-22T02:39:48.939Z,16.00
2023-05-22T02:40:50.526Z,15.80
2023-05-22T02:41:52.242Z,14.23
2023-05-22T02:42:53.893Z,19.67
2023-05-22T02:43:55.590Z,16.57
2023-05-22T02:44:57.165Z,15.03
2023-05-22T02:45:58.775Z,16.20
2023-05-22T02:47:00.362Z,14.47
2023-05-22T02:48:03.797Z,17.60
2023-05-22T02:49:05.510Z,15.17
2023-05-22T02:50:07.410Z,15.93
2023-05-22T02:51:08.978Z,14.77
2023-05-22T02:52:10.466Z,18.27
2023-05-22T02:53:13.144Z,15.40
2023-05-22T02:54:15.735Z,14.73
2023-05-22T02:55:17.400Z,15.93
2023-05-22T02:56:19.029Z,28.17
2023-05-22T02:57:20.621Z,16.57
2023-05-22T02:58:23.258Z,17.13
2023-05-22T02:59:24.858Z,22.43
2023-05-22T03:00:26.644Z,24.33
2023-05-22T03:01:30.601Z,14.93
2023-05-22T03:02:36.633Z,16.00
2023-05-22T03:03:38.503Z,18.03
2023-05-22T03:04:40.965Z,15.23
2023-05-22T03:05:43.323Z,15.23
2023-05-22T03:06:46.318Z,17.30
2023-05-22T03:07:49.147Z,15.10
2023-05-22T03:08:51.177Z,20.90
2023-05-22T03:09:53.083Z,18.10
2023-05-22T03:10:55.377Z,15.87
2023-05-22T03:11:56.886Z,15.53
2023-05-22T03:12:58.436Z,15.20
2023-05-22T03:14:00.131Z,17.20
2023-05-22T03:15:01.658Z,14.30
2023-05-22T03:16:03.225Z,13.83
2023-05-22T03:17:04.922Z,16.10
2023-05-22T03:18:06.621Z,15.67
2023-05-22T03:19:11.889Z,24.37
2023-05-22T03:20:17.167Z,15.97
2023-05-22T03:21:18.920Z,15.83
2023-05-22T03:22:21.497Z,15.47
2023-05-22T03:23:25.185Z,15.57
2023-05-22T03:24:27.399Z,15.37
2023-05-22T03:25:29.025Z,18.43
2023-05-22T03:26:30.746Z,20.90
2023-05-22T03:27:32.326Z,16.33
2023-05-22T03:28:34.021Z,15.50
2023-05-22T03:29:36.557Z,16.23
2023-05-22T03:30:38.289Z,16.07
2023-05-22T03:31:40.052Z,18.07
2023-05-22T03:32:41.620Z,17.43
2023-05-22T03:33:43.924Z,16.23
2023-05-22T03:34:45.555Z,15.63
2023-05-22T03:35:47.180Z,16.07
2023-05-22T03:36:49.033Z,16.80
2023-05-22T03:37:50.683Z,19.77
2023-05-22T03:38:52.482Z,16.10
2023-05-22T03:39:53.990Z,16.23
2023-05-22T03:40:55.613Z,19.90
2023-05-22T03:41:57.222Z,15.03
2023-05-22T03:42:58.719Z,16.70
2023-05-22T03:44:00.292Z,27.83
2023-05-22T03:45:01.939Z,20.80
2023-05-22T03:46:03.694Z,16.40
2023-05-22T03:47:05.412Z,17.63
2023-05-22T03:48:07.212Z,16.47
2023-05-22T03:49:08.756Z,15.50
2023-05-22T03:50:10.526Z,17.10
2023-05-22T03:51:12.107Z,16.57
2023-05-22T03:52:13.698Z,17.37
2023-05-22T03:53:15.418Z,17.47
2023-05-22T03:54:17.029Z,19.67
2023-05-22T03:55:18.542Z,15.77
2023-05-22T03:56:20.051Z,15.93
2023-05-22T03:57:21.724Z,16.63
2023-05-22T03:58:25.526Z,18.13
2023-05-22T03:59:27.125Z,17.83
2023-05-22T04:00:28.817Z,17.33
2023-05-22T04:01:31.103Z,16.73
2023-05-22T04:02:32.734Z,16.03
2023-05-22T04:03:34.357Z,17.30
2023-05-22T04:04:38.558Z,17.37
2023-05-22T04:05:40.700Z,19.50
2023-05-22T04:06:45.010Z,16.47
2023-05-22T04:07:46.578Z,15.87
2023-05-22T04:08:48.728Z,16.70
2023-05-22T04:09:50.342Z,15.63
2023-05-22T04:10:54.466Z,19.60
2023-05-22T04:11:56.171Z,15.57
2023-05-22T04:12:57.734Z,17.80
2023-05-22T04:14:02.868Z,18.17
2023-05-22T04:15:04.656Z,23.77
2023-05-22T04:16:06.374Z,14.87
2023-05-22T04:17:08.109Z,17.83
2023-05-22T04:18:09.717Z,16.30
2023-05-22T04:19:11.366Z,21.63
2023-05-22T04:20:13.350Z,16.00
2023-05-22T04:21:14.829Z,19.70
2023-05-22T04:22:17.530Z,16.90
2023-05-22T04:23:19.093Z,15.00
2023-05-22T04:24:23.054Z,14.97
2023-05-22T04:25:24.812Z,23.20
2023-05-22T04:26:29.623Z,17.23
2023-05-22T04:27:31.135Z,16.60
2023-05-22T04:28:32.872Z,16.43
2023-05-22T04:29:36.437Z,24.77
2023-05-22T04:30:40.504Z,18.33
2023-05-22T04:31:42.977Z,19.37
2023-05-22T04:32:44.703Z,15.53
2023-05-22T04:33:49.903Z,17.93
2023-05-22T04:34:51.710Z,16.00
2023-05-22T04:35:54.640Z,15.50
2023-05-22T04:36:56.283Z,19.53
2023-05-22T04:38:02.029Z,15.67
2023-05-22T04:39:04.064Z,14.00
2023-05-22T04:40:07.644Z,16.90
2023-05-22T04:41:10.306Z,18.13
2023-05-22T04:42:16.020Z,14.10
2023-05-22T04:43:18.702Z,21.03
2023-05-22T04:44:23.876Z,20.50
2023-05-22T04:45:25.764Z,16.90
2023-05-22T04:46:28.768Z,15.60
2023-05-22T04:47:31.883Z,24.40
2023-05-22T04:48:33.957Z,16.30
2023-05-22T04:49:35.620Z,19.73
2023-05-22T04:50:38.784Z,17.07
2023-05-22T04:51:40.881Z,13.80
2023-05-22T04:52:42.357Z,22.87
2023-05-22T04:53:43.990Z,13.50
2023-05-22T04:54:46.803Z,15.53
2023-05-22T04:55:48.363Z,16.93
2023-05-22T04:56:50.163Z,19.47
2023-05-22T04:57:52.824Z,13.97
2023-05-22T04:58:55.805Z,14.07
2023-05-22T04:59:57.558Z,14.83
2023-05-22T05:00:59.349Z,14.10
2023-05-22T05:02:01.397Z,22.43
2023-05-22T05:03:03.225Z,13.63
2023-05-22T05:04:04.958Z,15.40
2023-05-22T05:05:06.820Z,13.03
2023-05-22T05:06:08.519Z,14.33
2023-05-22T05:07:10.022Z,17.57
2023-05-22T05:08:11.883Z,16.03
2023-05-22T05:09:13.500Z,17.90
2023-05-22T05:10:15.505Z,13.27
2023-05-22T05:11:17.124Z,15.10
2023-05-22T05:12:18.670Z,18.23
2023-05-22T05:13:20.288Z,14.20
2023-05-22T05:14:21.852Z,12.90
2023-05-22T05:15:23.946Z,15.60
2023-05-22T05:16:26.404Z,12.47
2023-05-22T05:17:28.828Z,17.67
2023-05-22T05:18:30.670Z,18.40
2023-05-22T05:19:33.189Z,12.10
2023-05-22T05:20:36.406Z,13.83
2023-05-22T05:21:38.640Z,12.90
2023-05-22T05:22:40.286Z,14.83
2023-05-22T05:23:42.503Z,15.50
2023-05-22T05:24:44.080Z,29.90
2023-05-22T05:25:45.719Z,13.70
2023-05-22T05:26:47.433Z,14.93
2023-05-22T05:27:49.011Z,13.27
2023-05-22T05:28:50.801Z,13.93
2023-05-22T05:29:52.401Z,14.57
2023-05-22T05:30:53.973Z,14.13
2023-05-22T05:31:55.675Z,13.27
2023-05-22T05:32:57.302Z,14.57
2023-05-22T05:33:59.011Z,13.50
2023-05-22T05:35:00.571Z,11.53
2023-05-22T05:36:02.164Z,13.87
2023-05-22T05:37:04.944Z,15.17
2023-05-22T05:38:06.842Z,14.70
2023-05-22T05:39:08.434Z,11.83
2023-05-22T05:40:10.392Z,15.83
2023-05-22T05:41:12.051Z,12.87
2023-05-22T05:42:13.614Z,11.70
2023-05-22T05:43:15.406Z,14.27
2023-05-22T05:44:16.965Z,12.37
2023-05-22T05:45:18.464Z,12.47
2023-05-22T05:46:20.147Z,19.93
2023-05-22T05:47:24.127Z,13.97
2023-05-22T05:48:25.925Z,13.73
2023-05-22T05:49:27.451Z,21.90
2023-05-22T05:50:29.070Z,17.07
2023-05-22T05:51:31.114Z,13.20
2023-05-22T05:52:33.544Z,12.90
2023-05-22T05:53:37.077Z,12.87
2023-05-22T05:54:39.187Z,13.37
2023-05-22T05:55:40.758Z,12.00
2023-05-22T05:56:42.800Z,11.77
2023-05-22T05:57:44.453Z,13.50
2023-05-22T05:58:46.071Z,12.40
2023-05-22T05:59:47.575Z,13.90
2023-05-22T06:00:49.157Z,18.03
2023-05-22T06:01:50.848Z,13.53
2023-05-22T06:02:52.683Z,14.90
2023-05-22T06:03:54.508Z,14.13
2023-05-22T06:04:56.192Z,12.47
2023-05-22T06:05:58.181Z,14.20
2023-05-22T06:07:01.941Z,18.47
2023-05-22T06:08:04.314Z,12.77
2023-05-22T06:09:06.618Z,20.03
2023-05-22T06:10:09.632Z,12.50
2023-05-22T06:11:11.237Z,12.90
2023-05-22T06:12:12.997Z,12.70
2023-05-22T06:13:14.838Z,11.43
2023-05-22T06:14:16.582Z,12.20
2023-05-22T06:15:18.586Z,11.23
2023-05-22T06:16:20.343Z,11.83
2023-05-22T06:17:21.899Z,11.33
2023-05-22T06:18:25.380Z,12.20
2023-05-22T06:19:27.011Z,13.13
2023-05-22T06:20:28.629Z,17.47
2023-05-22T06:21:30.264Z,12.13
2023-05-22T06:22:31.999Z,12.70
2023-05-22T06:23:33.523Z,12.07
2023-05-22T06:24:35.170Z,11.47
2023-05-22T06:25:39.704Z,13.20
2023-05-22T06:26:41.952Z,15.20
2023-05-22T06:27:43.686Z,18.33
2023-05-22T06:28:45.620Z,11.97
2023-05-22T06:29:47.284Z,12.53
2023-05-22T06:30:49.083Z,11.60
2023-05-22T06:31:51.532Z,15.67
2023-05-22T06:32:53.199Z,14.10
2023-05-22T06:33:55.349Z,11.30
2023-05-22T06:34:57.135Z,14.53
2023-05-22T06:35:58.641Z,13.77
2023-05-22T06:37:00.319Z,15.17
2023-05-22T06:38:02.041Z,11.77
2023-05-22T06:39:03.598Z,12.57
2023-05-22T06:40:06.210Z,14.80
2023-05-22T06:41:08.248Z,12.47
2023-05-22T06:42:09.832Z,13.50
2023-05-22T06:43:12.364Z,13.20
2023-05-22T06:44:13.861Z,12.13
2023-05-22T06:45:17.557Z,16.10
2023-05-22T06:46:19.292Z,13.00
2023-05-22T06:47:20.963Z,11.07
2023-05-22T06:48:22.463Z,13.53
2023-05-22T06:49:24.107Z,13.63
2023-05-22T06:50:25.790Z,13.87
2023-05-22T06:51:27.523Z,13.73
2023-05-22T06:52:29.187Z,20.83
2023-05-22T06:53:30.889Z,13.37
2023-05-22T06:54:32.499Z,11.80
2023-05-22T06:55:34.172Z,11.00
2023-05-22T06:56:35.838Z,11.93
2023-05-22T06:57:37.630Z,11.97
2023-05-22T06:58:39.457Z,16.23
2023-05-22T06:59:41.164Z,12.20
2023-05-22T07:00:42.889Z,11.97
2023-05-22T07:01:44.552Z,12.10
2023-05-22T07:02:46.159Z,12.80
2023-05-22T07:03:47.738Z,14.77
2023-05-22T07:04:49.276Z,18.83
2023-05-22T07:05:51.538Z,15.13
2023-05-22T07:06:53.307Z,11.10
2023-05-22T07:07:54.895Z,11.30
2023-05-22T07:08:56.599Z,11.70
2023-05-22T07:09:58.167Z,15.67
2023-05-22T07:10:59.892Z,12.87
2023-05-22T07:12:01.439Z,11.63
2023-05-22T07:13:02.963Z,11.07
2023-05-22T07:14:04.594Z,11.77
2023-05-22T07:15:06.455Z,12.70
2023-05-22T07:16:08.376Z,13.87
2023-05-22T07:17:09.962Z,13.40
2023-05-22T07:18:12.642Z,10.33
2023-05-22T07:19:14.374Z,10.93
2023-05-22T07:20:16.853Z,13.80
2023-05-22T07:21:18.475Z,13.50
2023-05-22T07:22:20.116Z,15.20
2023-05-22T07:23:22.059Z,10.90
2023-05-22T07:24:24.537Z,11.17
2023-05-22T07:25:26.073Z,10.40
2023-05-22T07:26:28.621Z,10.73
2023-05-22T07:27:30.198Z,10.70
2023-05-22T07:28:31.843Z,10.23
2023-05-22T07:29:33.512Z,11.43
2023-05-22T07:30:36.181Z,11.17
2023-05-22T07:31:39.197Z,12.43
2023-05-22T07:32:41.147Z,10.53
2023-05-22T07:33:43.057Z,11.00
2023-05-22T07:34:44.686Z,11.40
2023-05-22T07:35:46.310Z,11.60
2023-05-22T07:36:47.961Z,12.50
2023-05-22T07:37:49.573Z,10.33
2023-05-22T07:38:51.186Z,11.13
2023-05-22T07:39:52.815Z,11.57
2023-05-22T07:40:54.382Z,11.87
2023-05-22T07:41:57.218Z,10.47
2023-05-22T07:42:59.582Z,12.67
2023-05-22T07:44:01.124Z,11.17
2023-05-22T07:45:02.773Z,11.30
2023-05-22T07:46:06.173Z,9.37
2023-05-22T07:47:09.000Z,9.83
2023-05-22T07:48:11.972Z,9.80
2023-05-22T07:49:17.194Z,9.70
2023-05-22T07:50:18.763Z,14.33
2023-05-22T07:51:20.538Z,9.33
2023-05-22T07:52:23.792Z,11.33
2023-05-22T07:53:25.400Z,9.90
2023-05-22T07:54:26.992Z,10.70
2023-05-22T07:55:28.561Z,10.27
2023-05-22T07:56:30.734Z,13.93
2023-05-22T07:57:32.814Z,9.13
2023-05-22T07:58:34.665Z,9.17
2023-05-22T07:59:37.796Z,8.60
2023-05-22T08:00:39.458Z,8.07
2023-05-22T08:01:44.708Z,9.43
2023-05-22T08:02:46.524Z,8.03
2023-05-22T08:03:48.246Z,7.40
2023-05-22T08:04:50.511Z,8.73
2023-05-22T08:05:52.248Z,8.33
2023-05-22T08:06:53.822Z,9.43
2023-05-22T08:07:55.383Z,9.03
2023-05-22T08:08:57.056Z,8.07
2023-05-22T08:09:58.852Z,8.63
2023-05-22T08:11:03.997Z,10.50
2023-05-22T08:12:07.719Z,7.35
2023-05-22T08:13:10.212Z,7.20
2023-05-22T08:14:11.844Z,8.95
2023-05-22T08:15:13.565Z,8.30
2023-05-22T08:16:15.108Z,7.40
2023-05-22T08:17:16.803Z,9.00
2023-05-22T08:18:18.363Z,12.70
2023-05-22T08:19:20.075Z,8.23
2023-05-22T08:20:21.835Z,7.57
2023-05-22T08:21:23.539Z,7.40
2023-05-22T08:22:25.183Z,8.77
2023-05-22T08:23:26.733Z,7.97
2023-05-22T08:24:30.391Z,12.60
2023-05-22T08:25:32.047Z,10.00
2023-05-22T08:26:34.153Z,9.77
2023-05-22T08:27:35.794Z,10.57
2023-05-22T08:28:41.992Z,8.63
2023-05-22T08:29:43.726Z,7.57
2023-05-22T08:30:45.298Z,9.27
2023-05-22T08:31:47.065Z,14.27
2023-05-22T08:32:48.784Z,9.27
2023-05-22T08:33:50.618Z,10.20
2023-05-22T08:34:52.167Z,15.13
2023-05-22T08:35:53.876Z,12.40
2023-05-22T08:36:55.504Z,8.67
2023-05-22T08:37:57.568Z,8.73
2023-05-22T08:38:59.205Z,10.17
2023-05-22T08:40:01.058Z,10.30
2023-05-22T08:41:02.752Z,9.67
2023-05-22T08:42:04.933Z,10.80
2023-05-22T08:43:06.829Z,9.53
2023-05-22T08:44:08.851Z,9.53
2023-05-22T08:45:10.843Z,8.90
2023-05-22T08:46:16.187Z,10.73
2023-05-22T08:47:19.128Z,11.57
2023-05-22T08:48:22.194Z,11.30
2023-05-22T08:49:24.478Z,17.00
2023-05-22T08:50:27.076Z,9.50
2023-05-22T08:51:31.544Z,8.50
2023-05-22T08:52:34.862Z,8.50
2023-05-22T08:53:37.114Z,12.40
2023-05-22T08:54:43.005Z,8.37
2023-05-22T08:55:45.917Z,11.77
2023-05-22T08:56:56.341Z,8.53
2023-05-22T08:57:59.801Z,11.97
2023-05-22T08:59:02.185Z,8.17
2023-05-22T09:00:04.394Z,11.13
2023-05-22T09:01:07.305Z,7.20
2023-05-22T09:02:09.710Z,14.15
2023-05-22T09:03:14.062Z,7.78
2023-05-22T09:04:16.102Z,5.88
2023-05-22T09:05:18.539Z,7.60
2023-05-22T09:06:20.245Z,7.90
2023-05-22T09:07:23.725Z,8.88
2023-05-22T09:08:25.500Z,10.40
2023-05-22T09:09:27.135Z,9.48
2023-05-22T09:10:28.686Z,9.02
2023-05-22T09:11:30.332Z,6.72
2023-05-22T09:12:32.461Z,8.20
2023-05-22T09:13:34.245Z,10.50
2023-05-22T09:14:39.953Z,7.47
2023-05-22T09:15:42.016Z,6.80
2023-05-22T09:16:51.947Z,6.85
2023-05-22T09:17:53.585Z,6.95
2023-05-22T09:18:57.033Z,6.88
2023-05-22T09:19:59.524Z,6.75
2023-05-22T09:21:04.959Z,10.40
2023-05-22T09:22:08.449Z,7.32
2023-05-22T09:23:14.560Z,6.38
2023-05-22T09:24:16.112Z,6.47
2023-05-22T09:25:19.070Z,6.65
2023-05-22T09:26:21.513Z,7.63
2023-05-22T09:27:23.628Z,6.53
2023-05-22T09:28:25.736Z,7.95
2023-05-22T09:29:27.473Z,7.53
2023-05-22T09:30:29.345Z,7.40
2023-05-22T09:31:31.854Z,6.80
2023-05-22T09:32:33.803Z,7.28
2023-05-22T09:33:37.363Z,11.15
2023-05-22T09:34:39.291Z,7.90
2023-05-22T09:35:42.299Z,14.52
2023-05-22T09:36:44.183Z,6.30
2023-05-22T09:37:46.267Z,8.85
2023-05-22T09:38:48.122Z,8.20
2023-05-22T09:39:52.804Z,10.00
2023-05-22T09:40:54.919Z,7.23
2023-05-22T09:42:01.170Z,7.80
2023-05-22T09:43:06.775Z,13.50
2023-05-22T09:44:15.242Z,7.80
2023-05-22T09:45:19.655Z,9.60
2023-05-22T09:46:21.235Z,7.97
2023-05-22T09:47:22.818Z,8.00
2023-05-22T09:48:24.995Z,15.20
2023-05-22T09:49:26.696Z,8.20
2023-05-22T09:50:28.259Z,7.13
2023-05-22T09:51:30.003Z,7.33
2023-05-22T09:52:35.231Z,10.33
2023-05-22T09:53:37.010Z,7.03
2023-05-22T09:54:44.566Z,7.63
2023-05-22T09:55:50.859Z,11.03
2023-05-22T09:56:56.032Z,18.93
2023-05-22T09:57:58.127Z,10.03
2023-05-22T09:59:00.301Z,8.02
2023-05-22T10:00:04.626Z,11.97
2023-05-22T10:01:08.747Z,6.40
2023-05-22T10:02:10.790Z,8.50
2023-05-22T10:03:13.084Z,7.88
2023-05-22T10:04:16.973Z,8.65
2023-05-22T10:05:22.260Z,7.35
2023-05-22T10:06:25.071Z,7.47
2023-05-22T10:07:29.076Z,11.73
2023-05-22T10:08:34.737Z,18.73
2023-05-22T10:09:38.464Z,7.07
2023-05-22T10:10:41.386Z,12.57
2023-05-22T10:11:43.494Z,7.60
2023-05-22T10:12:48.618Z,7.00
2023-05-22T10:13:51.031Z,8.73
2023-05-22T10:14:53.735Z,7.97
2023-05-22T10:15:56.133Z,6.20
2023-05-22T10:17:02.144Z,7.38
2023-05-22T10:18:04.460Z,8.57
2023-05-22T10:19:07.259Z,7.20
2023-05-22T10:20:09.251Z,6.63
2023-05-22T10:21:11.398Z,7.80
2023-05-22T10:22:14.974Z,11.10
2023-05-22T10:23:17.513Z,16.15
2023-05-22T10:24:19.397Z,8.13
2023-05-22T10:25:22.164Z,9.40
2023-05-22T10:26:23.994Z,10.30
2023-05-22T10:27:25.564Z,8.38
2023-05-22T10:28:50.211Z,7.47
2023-05-22T10:29:56.081Z,8.38
2023-05-22T10:31:03.453Z,8.63
2023-05-22T10:32:09.315Z,7.90
2023-05-22T10:33:30.012Z,11.68
2023-05-22T10:34:38.339Z,10.43
2023-05-22T10:35:46.633Z,9.88
2023-05-22T10:37:00.425Z,9.48
2023-05-22T10:38:29.903Z,9.57
2023-05-22T10:39:34.586Z,10.98
2023-05-22T10:40:36.527Z,10.52
2023-05-22T10:41:38.188Z,8.48
2023-05-22T10:42:39.933Z,9.02
2023-05-22T10:43:42.935Z,9.52
2023-05-22T10:44:44.556Z,11.55
2023-05-22T10:45:47.034Z,10.60
2023-05-22T10:46:51.907Z,12.73
2023-05-22T10:48:03.381Z,8.45
2023-05-22T10:49:04.951Z,13.70
2023-05-22T10:50:11.014Z,11.15
2023-05-22T10:51:18.061Z,13.00
2023-05-22T10:52:22.078Z,8.25
2023-05-22T10:53:27.896Z,10.45
2023-05-22T10:54:40.450Z,10.07
2023-05-22T10:55:52.672Z,10.18
2023-05-22T10:57:09.302Z,8.70
2023-05-22T10:58:13.838Z,21.20
2023-05-22T10:59:15.444Z,9.05
2023-05-22T11:00:19.302Z,11.18
2023-05-22T11:01:21.324Z,13.57
2023-05-22T11:02:31.371Z,25.35
2023-05-22T11:03:52.158Z,9.77
2023-05-22T11:04:53.876Z,8.77
2023-05-22T11:05:55.577Z,7.25
2023-05-22T11:07:00.141Z,7.47
2023-05-22T11:08:20.558Z,7.60
2023-05-22T11:09:29.154Z,8.45
2023-05-22T11:10:49.574Z,9.48
2023-05-22T11:12:10.107Z,7.93
2023-05-22T11:13:12.503Z,8.38
2023-05-22T11:14:18.392Z,11.63
2023-05-22T11:15:30.359Z,13.00
2023-05-22T11:16:37.564Z,9.93
2023-05-22T11:17:39.119Z,9.23
2023-05-22T11:18:41.116Z,7.00
2023-05-22T11:19:42.840Z,7.25
2023-05-22T11:20:44.951Z,8.18
2023-05-22T11:21:47.649Z,7.97
2023-05-22T11:22:59.673Z,7.53
2023-05-22T11:24:01.252Z,7.25
2023-05-22T11:25:07.634Z,7.38
2023-05-22T11:26:25.595Z,10.90
2023-05-22T11:27:29.138Z,7.50
2023-05-22T11:28:31.060Z,7.30
2023-05-22T11:29:32.689Z,7.28
2023-05-22T11:30:34.405Z,8.40
2023-05-22T11:31:37.588Z,7.65
2023-05-22T11:32:40.228Z,7.78
2023-05-22T11:33:42.039Z,7.82
2023-05-22T11:34:43.736Z,12.10
2023-05-22T11:35:47.636Z,7.78
2023-05-22T11:36:49.392Z,7.38
2023-05-22T11:37:51.972Z,7.75
2023-05-22T11:38:57.373Z,6.85
2023-05-22T11:40:04.468Z,11.23
2023-05-22T11:41:06.087Z,10.60
2023-05-22T11:42:07.683Z,14.30
2023-05-22T11:43:09.335Z,7.35
2023-05-22T11:44:11.386Z,8.32
2023-05-22T11:45:13.722Z,7.28
2023-05-22T11:46:15.872Z,9.93
2023-05-22T11:47:17.477Z,7.97
2023-05-22T11:48:19.899Z,10.23
2023-05-22T11:49:24.078Z,7.20
2023-05-22T11:50:40.798Z,7.28
2023-05-22T11:51:44.253Z,6.72
2023-05-22T11:52:46.862Z,8.35
2023-05-22T11:53:48.548Z,8.32
2023-05-22T11:54:52.020Z,7.53
2023-05-22T11:55:53.605Z,7.55
2023-05-22T11:56:55.279Z,12.95
2023-05-22T11:57:57.024Z,8.00
2023-05-22T11:58:58.985Z,7.38
2023-05-22T12:00:01.138Z,7.28
2023-05-22T12:01:03.439Z,7.30
2023-05-22T12:02:05.829Z,7.20
2023-05-22T12:03:07.845Z,8.25
2023-05-22T12:04:09.598Z,6.85
2023-05-22T12:05:12.021Z,6.35
2023-05-22T12:06:16.437Z,6.20
2023-05-22T12:07:18.768Z,6.93
2023-05-22T12:08:20.409Z,7.25
2023-05-22T12:09:22.080Z,7.50
2023-05-22T12:10:25.338Z,9.88
2023-05-22T12:11:28.157Z,11.93
2023-05-22T12:12:30.778Z,8.73
2023-05-22T12:13:32.343Z,8.77
2023-05-22T12:14:33.960Z,8.25
2023-05-22T12:15:35.565Z,8.23
2023-05-22T12:16:37.385Z,8.68
2023-05-22T12:17:40.062Z,7.97
2023-05-22T12:18:42.113Z,10.18
2023-05-22T12:19:44.453Z,8.27
2023-05-22T12:20:46.113Z,8.70
2023-05-22T12:21:51.409Z,8.18
2023-05-22T12:22:55.834Z,10.27
2023-05-22T12:23:57.503Z,8.30
2023-05-22T12:24:59.043Z,8.45
2023-05-22T12:26:02.266Z,8.27
2023-05-22T12:27:07.920Z,8.82
2023-05-22T12:28:09.559Z,8.27
2023-05-22T12:29:11.210Z,8.68
2023-05-22T12:30:13.568Z,8.18
2023-05-22T12:31:22.263Z,9.23
2023-05-22T12:32:24.120Z,8.25
2023-05-22T12:33:29.069Z,13.77
2023-05-22T12:34:34.511Z,9.07
2023-05-22T12:35:38.196Z,8.50
2023-05-22T12:36:40.678Z,9.07
2023-05-22T12:37:47.817Z,10.63
2023-05-22T12:38:49.680Z,8.50
2023-05-22T12:39:55.814Z,9.68
2023-05-22T12:40:57.904Z,9.00
2023-05-22T12:41:59.632Z,7.80
2023-05-22T12:43:01.545Z,7.60
2023-05-22T12:44:04.072Z,8.15
2023-05-22T12:45:05.997Z,7.90
2023-05-22T12:46:07.618Z,8.00
2023-05-22T12:47:09.296Z,9.02
2023-05-22T12:48:11.984Z,7.70
2023-05-22T12:49:13.761Z,8.00
2023-05-22T12:50:15.533Z,8.50
2023-05-22T12:51:19.365Z,8.13
2023-05-22T12:52:21.863Z,8.20
2023-05-22T12:53:23.633Z,8.55
2023-05-22T12:54:25.411Z,7.82
2023-05-22T12:55:27.564Z,7.07
2023-05-22T12:56:29.721Z,7.03
2023-05-22T12:57:31.312Z,7.72
2023-05-22T12:58:32.878Z,6.45
2023-05-22T12:59:34.822Z,7.65
2023-05-22T13:00:36.552Z,6.40
2023-05-22T13:01:38.138Z,13.63
2023-05-22T13:02:39.869Z,6.43
2023-05-22T13:03:41.657Z,6.60
2023-05-22T13:04:43.228Z,13.15
2023-05-22T13:05:44.962Z,6.35
2023-05-22T13:06:46.641Z,7.05
2023-05-22T13:07:48.448Z,9.77
2023-05-22T13:08:50.014Z,6.80
2023-05-22T13:09:51.954Z,7.28
2023-05-22T13:10:53.743Z,18.63
2023-05-22T13:11:55.702Z,7.57
2023-05-22T13:12:57.536Z,7.07
2023-05-22T13:13:59.146Z,6.88
2023-05-22T13:15:00.826Z,7.72
2023-05-22T13:16:02.746Z,7.70
2023-05-22T13:17:04.401Z,7.10
2023-05-22T13:18:06.104Z,6.70
2023-05-22T13:19:07.734Z,6.85
2023-05-22T13:20:09.692Z,6.55
2023-05-22T13:21:12.677Z,6.95
2023-05-22T13:22:14.828Z,7.28
2023-05-22T13:23:16.554Z,7.43
2023-05-22T13:24:18.449Z,7.68
2023-05-22T13:25:20.159Z,10.95
2023-05-22T13:26:22.876Z,9.27
2023-05-22T13:27:24.675Z,8.85
2023-05-22T13:28:26.971Z,9.63
2023-05-22T13:29:28.638Z,11.00
2023-05-22T13:30:30.345Z,7.90
2023-05-22T13:31:37.202Z,7.75
2023-05-22T13:32:39.023Z,8.25
2023-05-22T13:33:43.666Z,8.85
2023-05-22T13:34:45.722Z,15.27
2023-05-22T13:35:47.892Z,7.82
2023-05-22T13:36:49.592Z,8.07
2023-05-22T13:37:51.243Z,7.97
2023-05-22T13:38:52.824Z,8.25
2023-05-22T13:39:54.468Z,8.80
2023-05-22T13:40:56.103Z,15.98